Time;durP1;ratioP1;P1;durP2;ratioP2;P2;SDS_P1;SDS_P2;PMS_P1;PMS_P2;Temp;Humidity;BMP_temperature;BMP_pressure;BME280_temperature;BME280_humidity;BME280_pressure;Samples;Min_cycle;Max_cycle;Signal;HPM_P1;HPM_P2
2021/08/14 00:00:31;;;;;;;9.10;3.63;;;18.00;89.80;;;;;;4864913;29;20045;-85
2021/08/14 00:02:57;;;;;;;11.00;3.60;;;18.00;90.00;;;;;;4864486;29;20050;-85
2021/08/14 00:05:23;;;;;;;11.15;3.90;;;17.90;90.20;;;;;;4865284;29;20060;-85
2021/08/14 00:07:49;;;;;;;9.05;3.75;;;17.90;90.00;;;;;;4864862;29;20054;-85
2021/08/14 00:10:15;;;;;;;10.40;3.90;;;17.90;89.90;;;;;;4864578;29;20053;-85
2021/08/14 00:12:40;;;;;;;13.80;3.90;;;17.80;90.20;;;;;;4865744;29;20487;-85
2021/08/14 00:15:08;;;;;;;10.80;3.55;;;17.80;90.30;;;;;;4864788;29;20411;-84
2021/08/14 00:17:34;;;;;;;11.45;3.72;;;17.80;90.30;;;;;;4863919;29;20054;-85
2021/08/14 00:20:00;;;;;;;10.57;3.38;;;17.70;89.10;;;;;;4864601;29;20054;-85
2021/08/14 00:22:25;;;;;;;11.43;3.70;;;17.70;90.00;;;;;;4863646;29;20057;-85
2021/08/14 00:24:51;;;;;;;12.15;4.05;;;17.70;89.80;;;;;;4864330;29;20517;-85
2021/08/14 00:27:16;;;;;;;12.05;4.15;;;17.70;89.70;;;;;;4864411;29;20053;-86
2021/08/14 00:29:43;;;;;;;11.32;4.25;;;17.70;88.80;;;;;;4863599;29;20574;-84
2021/08/14 00:32:09;;;;;;;12.68;3.53;;;17.70;89.20;;;;;;4864621;29;20128;-85
2021/08/14 00:34:34;;;;;;;8.65;3.83;;;17.60;90.00;;;;;;4864293;29;20153;-84
2021/08/14 00:37:00;;;;;;;8.98;3.30;;;17.60;90.20;;;;;;4863609;29;20121;-84
2021/08/14 00:39:26;;;;;;;11.73;3.65;;;17.60;90.40;;;;;;4864987;29;20054;-84
2021/08/14 00:41:51;;;;;;;13.20;4.72;;;17.60;90.40;;;;;;4864495;29;20410;-85
2021/08/14 00:44:18;;;;;;;11.27;4.05;;;17.60;90.10;;;;;;4862994;29;20080;-84
2021/08/14 00:46:45;;;;;;;10.43;3.60;;;17.60;90.10;;;;;;4863652;29;20049;-84
2021/08/14 00:49:11;;;;;;;9.85;3.72;;;17.50;90.20;;;;;;4864304;29;20046;-85
2021/08/14 00:51:37;;;;;;;9.75;3.67;;;17.50;90.30;;;;;;4863315;29;20084;-85
2021/08/14 00:54:03;;;;;;;9.52;3.50;;;17.50;90.40;;;;;;4864095;29;20551;-85
2021/08/14 00:56:29;;;;;;;10.00;3.78;;;17.50;90.40;;;;;;4864210;29;20053;-85
2021/08/14 00:58:56;;;;;;;10.80;3.60;;;17.50;90.30;;;;;;4863801;29;20053;-85
2021/08/14 01:01:22;;;;;;;19.33;8.75;;;17.50;90.50;;;;;;4864419;29;20487;-84
2021/08/14 01:03:49;;;;;;;15.38;5.63;;;17.40;90.00;;;;;;4864194;29;20050;-84
2021/08/14 01:06:19;;;;;;;11.75;4.18;;;17.50;90.20;;;;;;4862908;29;20049;-84
2021/08/14 01:08:47;;;;;;;12.77;4.50;;;17.40;90.30;;;;;;4864047;29;20533;-84
2021/08/14 01:11:13;;;;;;;21.45;8.15;;;17.50;90.30;;;;;;4863746;29;20060;-84
2021/08/14 01:13:40;;;;;;;11.75;4.90;;;17.40;90.10;;;;;;4863202;29;20061;-85
2021/08/14 01:16:07;;;;;;;12.85;4.93;;;17.40;90.20;;;;;;4863361;29;20057;-84
2021/08/14 01:18:33;;;;;;;15.68;5.57;;;17.40;90.20;;;;;;4862920;29;20134;-85
2021/08/14 01:20:59;;;;;;;11.18;4.75;;;17.40;90.00;;;;;;4862498;29;20060;-84
2021/08/14 01:23:25;;;;;;;11.35;5.07;;;17.40;90.00;;;;;;4863109;29;20054;-84
2021/08/14 01:26:08;;;;;;;14.85;5.95;;;17.40;90.10;;;;;;4861775;29;20061;-84
2021/08/14 01:28:35;;;;;;;12.43;5.20;;;17.40;89.80;;;;;;4863056;29;20053;-84
2021/08/14 01:31:02;;;;;;;14.13;5.60;;;17.30;90.10;;;;;;4863129;29;20302;-84
2021/08/14 01:33:36;;;;;;;14.35;5.18;;;17.30;90.10;;;;;;4862079;29;20486;-83
2021/08/14 01:36:02;;;;;;;;;;;17.30;90.10;;;;;;4863350;29;20053;-83
2021/08/14 01:38:28;;;;;;;11.80;4.80;;;17.20;88.50;;;;;;4862999;29;19931;-84
2021/08/14 01:40:54;;;;;;;13.40;5.28;;;17.30;90.40;;;;;;4861968;29;20053;-84
2021/08/14 01:43:20;;;;;;;11.25;4.93;;;17.20;90.30;;;;;;4862747;29;20060;-85
2021/08/14 01:45:48;;;;;;;15.95;5.18;;;17.20;90.30;;;;;;4862377;29;20054;-84
2021/08/14 01:48:14;;;;;;;17.33;6.03;;;17.20;90.20;;;;;;4862461;29;20422;-85
2021/08/14 01:50:39;;;;;;;13.20;5.70;;;17.20;90.30;;;;;;4862981;29;20049;-84
2021/08/14 01:53:05;;;;;;;13.85;5.18;;;17.20;90.30;;;;;;4862668;29;20505;-84
2021/08/14 01:55:30;;;;;;;12.63;5.00;;;17.20;90.20;;;;;;4861193;29;20129;-84
2021/08/14 01:57:56;;;;;;;14.48;5.10;;;17.20;90.40;;;;;;4862448;29;20558;-84
2021/08/14 02:00:22;;;;;;;13.40;4.75;;;17.20;90.30;;;;;;4862825;29;20086;-85
2021/08/14 02:02:48;;;;;;;11.63;4.70;;;17.20;90.30;;;;;;4862469;29;20088;-85
2021/08/14 02:05:14;;;;;;;11.32;4.97;;;17.20;90.40;;;;;;4863133;29;20053;-84
2021/08/14 02:07:40;;;;;;;16.13;5.28;;;17.20;90.60;;;;;;4863220;29;20406;-85
2021/08/14 02:10:06;;;;;;;13.13;4.90;;;17.10;90.30;;;;;;4862283;29;20060;-84
2021/08/14 02:12:32;;;;;;;11.50;4.60;;;17.10;90.30;;;;;;4862819;29;20101;-84
2021/08/14 02:14:58;;;;;;;14.45;4.80;;;17.10;90.60;;;;;;4861923;29;20049;-84
2021/08/14 02:17:23;;;;;;;18.00;5.75;;;17.10;90.70;;;;;;4862746;29;20509;-84
2021/08/14 02:19:49;;;;;;;13.73;5.43;;;17.10;90.50;;;;;;4863432;29;20056;-84
2021/08/14 02:22:14;;;;;;;14.73;4.88;;;17.20;90.70;;;;;;4861956;29;20547;-85
2021/08/14 02:24:40;;;;;;;13.63;5.05;;;17.10;90.60;;;;;;4862115;29;20049;-84
2021/08/14 02:27:06;;;;;;;11.52;4.75;;;17.10;90.80;;;;;;4862877;29;20057;-85
2021/08/14 02:29:33;;;;;;;11.73;4.05;;;17.10;90.80;;;;;;4862089;29;20117;-85
2021/08/14 02:32:00;;;;;;;14.35;4.85;;;17.10;90.70;;;;;;4862971;29;20057;-85
2021/08/14 02:34:26;;;;;;;11.85;4.60;;;17.00;90.50;;;;;;4863005;29;20060;-85
2021/08/14 02:36:52;;;;;;;17.10;5.28;;;17.10;90.60;;;;;;4862049;29;20060;-85
2021/08/14 02:39:18;;;;;;;12.43;5.18;;;17.00;90.70;;;;;;4862286;29;20046;-85
2021/08/14 02:41:44;;;;;;;18.63;5.63;;;17.00;90.70;;;;;;4861860;29;20110;-85
2021/08/14 02:44:09;;;;;;;12.23;4.95;;;17.00;90.70;;;;;;4861289;29;20054;-84
2021/08/14 02:46:35;;;;;;;14.65;5.65;;;17.00;90.50;;;;;;4862301;29;20058;-85
2021/08/14 02:49:01;;;;;;;11.82;5.03;;;17.00;90.60;;;;;;4862265;29;20053;-84
2021/08/14 02:51:27;;;;;;;11.30;4.95;;;17.00;90.50;;;;;;4861213;29;20057;-85
2021/08/14 02:53:52;;;;;;;18.33;6.72;;;17.00;90.70;;;;;;4862251;29;20563;-85
2021/08/14 02:56:18;;;;;;;12.25;5.75;;;17.00;90.70;;;;;;4861772;29;20054;-85
2021/08/14 02:58:43;;;;;;;12.68;5.05;;;17.00;90.70;;;;;;4860703;29;20566;-84
2021/08/14 03:01:09;;;;;;;13.10;5.75;;;17.00;90.80;;;;;;4861497;29;20057;-84
2021/08/14 03:03:35;;;;;;;19.45;5.97;;;17.00;90.60;;;;;;4861656;29;20054;-85
2021/08/14 03:06:00;;;;;;;28.02;13.50;;;16.90;90.70;;;;;;4860587;29;20053;-85
2021/08/14 03:08:26;;;;;;;22.17;9.48;;;16.90;90.70;;;;;;4861476;29;20069;-85
2021/08/14 03:10:52;;;;;;;21.85;8.75;;;16.90;90.70;;;;;;4861623;29;20077;-84
2021/08/14 03:13:17;;;;;;;20.08;8.32;;;16.90;90.70;;;;;;4860329;29;20054;-84
2021/08/14 03:15:43;;;;;;;16.75;6.32;;;16.90;90.90;;;;;;4861449;29;20141;-84
2021/08/14 03:18:09;;;;;;;20.08;6.78;;;16.90;90.50;;;;;;4861466;29;20060;-84
2021/08/14 03:20:35;;;;;;;14.15;5.72;;;16.80;90.80;;;;;;4860865;29;20414;-85
2021/08/14 03:23:01;;;;;;;17.35;5.70;;;16.80;91.00;;;;;;4861545;29;20057;-84
2021/08/14 03:25:27;;;;;;;15.80;5.55;;;16.80;90.90;;;;;;4860509;29;20054;-85
2021/08/14 03:27:53;;;;;;;19.30;6.00;;;16.80;90.90;;;;;;4861196;29;20410;-84
2021/08/14 03:30:19;;;;;;;19.60;6.50;;;16.80;90.90;;;;;;4861286;29;20060;-85
2021/08/14 03:32:45;;;;;;;14.18;5.38;;;16.80;90.90;;;;;;4860373;29;20053;-85
2021/08/14 03:35:15;;;;;;;20.02;6.50;;;16.80;91.00;;;;;;4861113;29;20475;-85
2021/08/14 03:37:41;;;;;;;18.83;5.57;;;16.80;90.90;;;;;;4861062;29;20064;-85
2021/08/14 03:40:08;;;;;;;13.18;5.43;;;16.70;91.00;;;;;;4860407;29;20064;-84
2021/08/14 03:42:34;;;;;;;17.67;6.20;;;16.80;91.30;;;;;;4861225;29;20057;-84
2021/08/14 03:44:59;;;;;;;13.10;5.07;;;16.80;91.20;;;;;;4861842;29;20477;-85
2021/08/14 03:47:26;;;;;;;15.40;5.57;;;16.70;91.30;;;;;;4861452;29;20053;-84
2021/08/14 03:49:52;;;;;;;17.48;5.50;;;16.70;91.40;;;;;;4861877;29;20106;-85
2021/08/14 03:52:20;;;;;;;18.33;5.78;;;16.70;91.50;;;;;;4861617;29;20057;-84
2021/08/14 03:54:47;;;;;;;15.23;5.47;;;16.70;91.70;;;;;;4861151;29;20133;-84
2021/08/14 03:57:12;;;;;;;13.68;5.38;;;16.70;91.40;;;;;;4861803;29;20554;-83
2021/08/14 03:59:38;;;;;;;14.02;5.40;;;16.70;91.30;;;;;;4861418;29;20092;-84
2021/08/14 04:02:04;;;;;;;14.25;5.15;;;16.70;91.50;;;;;;4861125;29;20077;-84
2021/08/14 04:04:30;;;;;;;12.18;5.28;;;16.70;91.40;;;;;;4861490;29;20140;-84
2021/08/14 04:06:58;;;;;;;13.55;4.97;;;16.70;91.50;;;;;;4862091;29;20060;-85
2021/08/14 04:09:23;;;;;;;18.40;5.65;;;16.70;91.60;;;;;;4860652;29;20126;-85
2021/08/14 04:11:49;;;;;;;14.23;5.50;;;16.60;91.60;;;;;;4861057;29;20069;-85
2021/08/14 04:14:15;;;;;;;15.85;5.50;;;16.70;91.70;;;;;;4861253;29;20045;-84
2021/08/14 04:16:41;;;;;;;14.98;5.00;;;16.70;91.60;;;;;;4860012;29;20415;-84
2021/08/14 04:19:08;;;;;;;14.20;5.45;;;16.60;91.30;;;;;;4863320;29;20410;-85
2021/08/14 04:21:34;;;;;;;11.27;4.75;;;16.60;91.30;;;;;;4863673;29;20061;-85
2021/08/14 04:23:59;;;;;;;16.98;5.32;;;16.60;91.50;;;;;;4864026;29;20053;-85
2021/08/14 04:26:28;;;;;;;20.20;6.25;;;16.60;91.50;;;;;;4863926;29;20061;-85
2021/08/14 04:28:54;;;;;;;12.88;5.20;;;16.60;91.60;;;;;;4863450;29;20080;-84
2021/08/14 04:31:20;;;;;;;15.00;5.22;;;16.60;91.70;;;;;;4864206;29;20407;-84
2021/08/14 04:33:45;;;;;;;23.75;6.28;;;16.60;91.60;;;;;;4864045;29;20495;-84
2021/08/14 04:36:11;;;;;;;16.42;5.25;;;16.70;91.80;;;;;;4863172;29;20477;-84
2021/08/14 04:38:37;;;;;;;13.52;4.70;;;16.70;91.50;;;;;;4863661;29;20045;-85
2021/08/14 04:41:03;;;;;;;19.08;6.10;;;16.70;91.50;;;;;;4864123;29;20439;-85
2021/08/14 04:43:28;;;;;;;17.13;5.43;;;16.60;91.70;;;;;;4863127;29;20049;-84
2021/08/14 04:45:54;;;;;;;14.63;5.45;;;16.60;91.50;;;;;;4864053;29;20501;-84
2021/08/14 04:48:20;;;;;;;25.52;6.70;;;16.60;91.50;;;;;;4864559;29;20077;-84
2021/08/14 04:50:46;;;;;;;14.98;5.90;;;16.70;91.80;;;;;;4863610;29;20145;-85
2021/08/14 04:53:11;;;;;;;11.88;4.90;;;16.60;91.70;;;;;;4864351;29;20057;-84
2021/08/14 04:55:39;;;;;;;22.13;6.10;;;16.60;91.60;;;;;;4864425;29;20057;-85
2021/08/14 04:58:05;;;;;;;13.20;4.72;;;16.60;91.60;;;;;;4863184;29;20054;-84
2021/08/14 05:00:36;;;;;;;14.50;5.05;;;16.60;91.70;;;;;;4864955;29;20056;-84
2021/08/14 05:03:02;;;;;;;16.00;5.65;;;16.60;91.60;;;;;;4864128;29;20088;-83
2021/08/14 05:05:27;;;;;;;18.38;6.22;;;16.60;91.80;;;;;;4863239;29;20077;-85
2021/08/14 05:07:53;;;;;;;18.30;5.93;;;16.60;91.90;;;;;;4864146;29;20421;-84
2021/08/14 05:10:18;;;;;;;22.80;6.18;;;16.60;91.90;;;;;;4864074;29;20098;-84
2021/08/14 05:12:45;;;;;;;17.67;5.90;;;16.50;91.90;;;;;;4862593;29;20088;-84
2021/08/14 05:15:10;;;;;;;15.07;4.90;;;16.50;92.00;;;;;;4863446;29;20074;-84
2021/08/14 05:17:36;;;;;;;15.50;5.07;;;16.60;92.00;;;;;;4863279;29;20057;-84
2021/08/14 05:20:03;;;;;;;19.90;6.22;;;16.50;92.00;;;;;;4862239;29;20057;-84
2021/08/14 05:22:29;;;;;;;15.95;5.68;;;16.60;92.10;;;;;;4863258;29;20165;-85
2021/08/14 05:24:55;;;;;;;18.52;6.30;;;16.50;91.90;;;;;;4862406;29;20053;-84
2021/08/14 05:27:20;;;;;;;17.73;5.75;;;16.60;92.10;;;;;;4862748;29;20062;-87
2021/08/14 05:29:46;;;;;;;14.13;4.95;;;16.50;92.00;;;;;;4862115;29;20052;-84
2021/08/14 05:32:13;;;;;;;15.68;5.45;;;16.50;92.00;;;;;;4862612;29;20057;-84
2021/08/14 05:34:38;;;;;;;22.98;6.72;;;16.50;92.10;;;;;;4863684;29;20057;-84
2021/08/14 05:37:04;;;;;;;20.67;6.07;;;16.50;92.10;;;;;;4863146;29;20618;-84
2021/08/14 05:39:30;;;;;;;21.13;6.78;;;16.50;92.30;;;;;;4862198;29;20057;-84
2021/08/14 05:41:56;;;;;;;19.48;6.22;;;16.50;92.50;;;;;;4863582;29;20140;-84
2021/08/14 05:44:22;;;;;;;22.42;6.80;;;16.50;92.50;;;;;;4863310;29;20387;-84
2021/08/14 05:46:47;;;;;;;28.90;7.45;;;16.50;92.60;;;;;;4862562;29;20053;-84
2021/08/14 05:49:14;;;;;;;19.98;6.45;;;16.50;92.80;;;;;;4862805;29;20057;-84
2021/08/14 05:51:41;;;;;;;22.15;6.70;;;16.50;92.80;;;;;;4862126;29;20064;-84
2021/08/14 05:54:07;;;;;;;24.33;7.00;;;16.60;92.70;;;;;;4862134;29;20109;-84
2021/08/14 05:56:33;;;;;;;22.30;6.60;;;16.60;92.80;;;;;;4862934;29;20056;-84
2021/08/14 05:58:59;;;;;;;20.52;7.50;;;16.70;93.00;;;;;;4862748;29;20053;-83
2021/08/14 06:01:25;;;;;;;21.98;7.20;;;16.70;93.10;;;;;;4861971;29;20061;-83
2021/08/14 06:03:50;;;;;;;24.02;7.60;;;16.70;93.00;;;;;;4862637;29;20459;-83
2021/08/14 06:06:16;;;;;;;17.77;6.68;;;16.70;93.00;;;;;;4862184;29;20053;-83
2021/08/14 06:08:41;;;;;;;19.77;6.55;;;16.70;92.70;;;;;;4861760;29;20053;-83
2021/08/14 06:11:07;;;;;;;23.02;7.15;;;16.70;92.70;;;;;;4862853;29;20129;-84
2021/08/14 06:13:33;;;;;;;17.42;5.97;;;16.80;92.90;;;;;;4862318;29;20535;-83
2021/08/14 06:15:58;;;;;;;24.13;7.22;;;16.80;92.70;;;;;;4861739;29;20049;-83
2021/08/14 06:18:24;;;;;;;25.38;7.63;;;16.90;92.80;;;;;;4862304;29;20471;-83
2021/08/14 06:20:51;;;;;;;15.55;6.25;;;16.90;93.20;;;;;;4862292;29;20053;-87
2021/08/14 06:23:16;;;;;;;26.02;7.38;;;16.90;92.90;;;;;;4861287;29;20061;-84
2021/08/14 06:25:42;;;;;;;24.50;7.55;;;17.00;93.10;;;;;;4861918;29;20093;-85
2021/08/14 06:28:08;;;;;;;24.40;7.57;;;17.00;93.30;;;;;;4861410;29;20141;-86
2021/08/14 06:30:42;;;;;;;28.00;8.57;;;17.00;93.50;;;;;;4862040;29;20152;-84
2021/08/14 06:33:07;;;;;;;29.67;8.95;;;17.10;94.00;;;;;;4862035;29;20470;-85
2021/08/14 06:35:38;;;;;;;27.30;8.15;;;17.20;93.70;;;;;;4861326;29;20133;-84
2021/08/14 06:38:04;;;;;;;23.92;8.70;;;17.30;93.80;;;;;;4862096;29;20081;-84
2021/08/14 06:40:30;;;;;;;24.20;8.10;;;17.40;94.00;;;;;;4861893;29;20064;-86
2021/08/14 06:42:55;;;;;;;25.67;8.30;;;17.40;93.80;;;;;;4861234;29;20516;-85
2021/08/14 06:45:21;;;;;;;32.28;9.18;;;17.50;93.70;;;;;;4861854;29;20060;-85
2021/08/14 06:47:47;;;;;;;24.55;8.00;;;17.60;93.80;;;;;;4861822;29;20567;-85
2021/08/14 06:50:14;;;;;;;25.65;8.07;;;17.70;93.40;;;;;;4861078;29;20053;-83
2021/08/14 06:52:40;;;;;;;24.05;7.65;;;17.80;93.40;;;;;;4861606;29;20053;-86
2021/08/14 06:55:06;;;;;;;26.52;8.55;;;17.80;93.30;;;;;;4861598;29;20060;-84
2021/08/14 06:57:33;;;;;;;26.85;8.18;;;17.90;93.30;;;;;;4860770;29;20049;-84
2021/08/14 07:00:05;;;;;;;31.73;8.75;;;17.90;93.20;;;;;;4861457;29;20487;-83
2021/08/14 07:02:41;;;;;;;25.38;9.35;;;17.90;93.20;;;;;;4861438;29;20082;-85
2021/08/14 07:05:10;;;;;;;26.08;8.90;;;18.00;93.30;;;;;;4860738;29;20082;-85
2021/08/14 07:07:35;;;;;;;24.83;7.78;;;18.00;93.30;;;;;;4861413;29;20060;-84
2021/08/14 07:10:03;;;;;;;25.45;8.15;;;18.10;93.20;;;;;;4861282;29;20054;-83
2021/08/14 07:12:29;;;;;;;25.67;8.60;;;18.00;92.90;;;;;;4860757;29;20049;-83
2021/08/14 07:14:59;;;;;;;25.27;8.00;;;18.10;93.20;;;;;;4861443;29;20084;-86
2021/08/14 07:17:27;;;;;;;23.87;8.80;;;18.20;93.10;;;;;;4860749;29;20494;-84
2021/08/14 07:19:53;;;;;;;29.48;8.50;;;18.20;93.00;;;;;;4861803;29;20097;-85
2021/08/14 07:22:18;;;;;;;26.83;8.50;;;18.30;93.20;;;;;;4861332;29;20476;-85
2021/08/14 07:24:44;;;;;;;30.33;9.13;;;18.40;93.20;;;;;;4860972;29;20121;-86
2021/08/14 07:27:10;;;;;;;28.40;8.90;;;18.40;93.10;;;;;;4861357;29;20129;-84
2021/08/14 07:29:35;;;;;;;33.95;9.65;;;18.50;93.10;;;;;;4861428;29;20049;-85
2021/08/14 07:32:01;;;;;;;25.75;8.13;;;18.60;93.00;;;;;;4860898;29;20053;-85
2021/08/14 07:34:27;;;;;;;28.35;8.32;;;18.70;92.80;;;;;;4861580;29;20403;-85
2021/08/14 07:36:52;;;;;;;27.67;8.50;;;18.70;92.70;;;;;;4861380;29;20098;-85
2021/08/14 07:39:18;;;;;;;26.33;8.23;;;18.80;92.70;;;;;;4860498;29;20077;-84
2021/08/14 07:41:44;;;;;;;27.05;8.13;;;18.90;92.60;;;;;;4860777;29;20053;-84
2021/08/14 07:44:09;;;;;;;20.90;7.47;;;19.00;92.50;;;;;;4860949;29;20056;-85
2021/08/14 07:46:35;;;;;;;26.92;7.72;;;19.00;92.40;;;;;;4860429;29;20057;-86
2021/08/14 07:49:01;;;;;;;21.48;7.20;;;19.10;92.30;;;;;;4861467;29;20049;-85
2021/08/14 07:51:27;;;;;;;24.80;7.22;;;19.20;92.20;;;;;;4861257;29;20057;-87
2021/08/14 07:53:53;;;;;;;25.58;7.28;;;19.20;92.10;;;;;;4862670;29;20053;-84
2021/08/14 07:56:18;;;;;;;25.08;7.97;;;19.30;92.00;;;;;;4864947;29;20100;-84
2021/08/14 07:58:44;;;;;;;23.00;6.93;;;19.30;91.90;;;;;;4864656;29;20057;-85
2021/08/14 08:01:09;;;;;;;21.98;6.70;;;19.40;91.70;;;;;;4864143;29;20479;-85
2021/08/14 08:03:35;;;;;;;23.85;8.18;;;19.50;91.70;;;;;;4864646;29;20049;-84
2021/08/14 08:06:01;;;;;;;21.13;6.55;;;19.50;91.60;;;;;;4864783;29;20077;-84
2021/08/14 08:08:26;;;;;;;21.75;7.05;;;19.50;91.70;;;;;;4864048;29;20144;-85
2021/08/14 08:10:52;;;;;;;22.83;6.50;;;19.60;91.50;;;;;;4864750;29;20057;-84
2021/08/14 08:13:17;;;;;;;22.70;6.97;;;19.60;91.30;;;;;;4864535;29;20410;-84
2021/08/14 08:15:43;;;;;;;23.73;6.25;;;19.60;91.20;;;;;;4863801;29;20128;-83
2021/08/14 08:18:12;;;;;;;24.52;6.50;;;19.70;91.00;;;;;;4864264;29;20448;-84
2021/08/14 08:20:38;;;;;;;22.90;6.30;;;19.70;90.80;;;;;;4864118;29;20056;-84
2021/08/14 08:23:04;;;;;;;25.50;5.97;;;19.80;90.80;;;;;;4864210;29;20057;-84
2021/08/14 08:25:32;;;;;;;24.60;6.15;;;19.80;90.70;;;;;;4864415;29;20053;-85
2021/08/14 08:28:01;;;;;;;23.88;6.03;;;19.90;90.80;;;;;;4863912;29;20336;-85
2021/08/14 08:30:28;;;;;;;22.88;5.72;;;19.90;90.60;;;;;;4864083;29;20076;-85
2021/08/14 08:32:54;;;;;;;17.00;5.47;;;19.90;90.40;;;;;;4864349;29;20414;-85
2021/08/14 08:35:20;;;;;;;19.08;5.32;;;20.00;90.30;;;;;;4863545;29;20057;-84
2021/08/14 08:37:46;;;;;;;18.90;5.88;;;20.00;90.20;;;;;;4864454;29;20190;-86
2021/08/14 08:40:14;;;;;;;18.38;5.45;;;20.00;89.90;;;;;;4864386;29;20101;-86
2021/08/14 08:42:40;;;;;;;20.48;6.00;;;20.10;89.80;;;;;;4863476;29;20494;-84
2021/08/14 08:45:06;;;;;;;22.10;6.03;;;20.10;89.60;;;;;;4864412;29;20074;-85
2021/08/14 08:47:36;;;;;;;22.40;6.20;;;20.20;89.70;;;;;;4864338;29;20056;-85
2021/08/14 08:50:05;;;;;;;16.15;5.53;;;20.20;89.50;;;;;;4863450;29;20050;-86
2021/08/14 08:52:31;;;;;;;20.35;5.80;;;20.30;89.50;;;;;;4864014;29;20418;-86
2021/08/14 08:54:57;;;;;;;19.85;5.95;;;20.40;89.70;;;;;;4864203;29;20049;-87
2021/08/14 08:57:22;;;;;;;20.73;5.60;;;20.50;89.90;;;;;;4863502;29;20060;-86
2021/08/14 08:59:49;;;;;;;20.60;5.50;;;20.60;89.50;;;;;;4864299;29;20056;-83
2021/08/14 09:02:29;;;;;;;23.63;5.32;;;20.70;88.40;;;;;;4863651;29;20053;-84
2021/08/14 09:05:16;;;;;;;17.17;5.53;;;20.70;88.20;;;;;;4863346;29;20110;-85
2021/08/14 09:07:45;;;;;;;18.73;5.13;;;20.80;88.00;;;;;;4863722;29;20059;-85
2021/08/14 09:10:16;;;;;;;17.17;4.85;;;20.90;88.00;;;;;;4863263;29;20113;-86
2021/08/14 09:12:43;;;;;;;18.50;5.00;;;20.90;87.00;;;;;;4864025;29;20464;-86
2021/08/14 09:15:31;;;;;;;16.67;4.75;;;21.00;86.60;;;;;;4863907;29;20054;-85
2021/08/14 09:18:01;;;;;;;18.48;4.75;;;21.10;85.80;;;;;;4863358;29;20056;-87
2021/08/14 09:20:27;;;;;;;20.27;4.72;;;21.20;85.70;;;;;;4863868;29;20049;-86
2021/08/14 09:23:10;;;;;;;14.27;4.53;;;21.30;85.20;;;;;;4863599;29;20053;-85
2021/08/14 09:25:47;;;;;;;14.00;4.72;;;21.30;84.60;;;;;;4862793;29;20140;-86
2021/08/14 09:28:16;;;;;;;17.95;4.95;;;21.40;83.70;;;;;;4863363;29;20064;-85
2021/08/14 09:30:49;;;;;;;16.73;4.78;;;21.40;83.30;;;;;;4863324;29;20053;-86
2021/08/14 09:33:26;;;;;;;15.80;5.15;;;21.40;83.20;;;;;;4862433;29;20049;-84
2021/08/14 09:35:56;;;;;;;18.90;4.97;;;21.40;83.70;;;;;;4862916;29;20073;-85
2021/08/14 09:38:23;;;;;;;19.08;5.32;;;21.30;83.70;;;;;;4862397;29;20105;-85
2021/08/14 09:40:48;;;;;;;18.33;5.05;;;21.40;83.60;;;;;;4862918;29;20509;-84
2021/08/14 09:43:30;;;;;;;16.15;4.78;;;21.30;83.50;;;;;;4862658;29;20069;-87
2021/08/14 09:45:56;;;;;;;17.55;5.28;;;21.30;83.70;;;;;;4862713;29;20088;-85
2021/08/14 09:48:24;;;;;;;23.35;5.38;;;21.30;84.00;;;;;;4863234;29;20077;-86
2021/08/14 09:50:50;;;;;;;16.08;5.20;;;21.30;83.60;;;;;;4863316;29;20057;-86
2021/08/14 09:53:24;;;;;;;19.05;5.22;;;21.40;83.50;;;;;;4861955;29;20133;-87
2021/08/14 09:56:10;;;;;;;17.85;4.85;;;21.40;83.20;;;;;;4863104;29;20045;-85
2021/08/14 09:58:37;;;;;;;21.40;5.25;;;21.30;82.90;;;;;;4862828;29;20057;-85
2021/08/14 10:01:04;;;;;;;22.25;5.28;;;21.30;83.80;;;;;;4861840;29;20514;-86
2021/08/14 10:03:31;;;;;;;19.38;5.63;;;21.30;83.30;;;;;;4862186;29;20064;-85
2021/08/14 10:05:59;;;;;;;18.50;5.60;;;21.30;83.70;;;;;;4862348;29;20124;-86
2021/08/14 10:08:26;;;;;;;21.67;5.68;;;21.30;84.30;;;;;;4861505;29;20057;-86
2021/08/14 10:10:53;;;;;;;19.98;5.95;;;21.30;84.40;;;;;;4862286;29;20103;-85
2021/08/14 10:13:19;;;;;;;16.48;5.50;;;21.30;84.50;;;;;;4861239;29;20400;-85
2021/08/14 10:15:45;;;;;;;15.05;5.50;;;21.30;84.80;;;;;;4862058;29;20134;-85
2021/08/14 10:18:11;;;;;;;19.92;5.55;;;21.30;84.90;;;;;;4862473;29;20537;-86
2021/08/14 10:20:37;;;;;;;19.30;5.45;;;21.40;85.10;;;;;;4861539;29;20045;-85
2021/08/14 10:23:05;;;;;;;24.88;6.45;;;21.40;85.00;;;;;;4862417;29;20058;-84
2021/08/14 10:25:35;;;;;;;18.17;5.75;;;21.40;84.40;;;;;;4862111;29;20073;-84
2021/08/14 10:28:03;;;;;;;25.35;6.35;;;21.40;84.60;;;;;;4861363;29;20053;-86
2021/08/14 10:30:47;;;;;;;18.40;6.05;;;21.50;84.60;;;;;;4861766;29;20054;-85
2021/08/14 10:33:27;;;;;;;23.25;6.38;;;21.60;84.40;;;;;;4862089;29;20053;-86
2021/08/14 10:35:54;;;;;;;25.30;6.68;;;21.60;84.00;;;;;;4861305;29;20057;-85
2021/08/14 10:38:46;;;;;;;21.05;5.40;;;21.60;83.80;;;;;;4862181;29;20058;-85
2021/08/14 10:41:13;;;;;;;21.73;6.30;;;21.60;82.70;;;;;;4859841;29;20065;-85
2021/08/14 10:43:54;;;;;;;18.55;5.80;;;21.60;83.30;;;;;;4861176;29;20183;-84
2021/08/14 10:46:31;;;;;;;19.60;6.07;;;21.60;83.20;;;;;;4861985;29;20049;-85
2021/08/14 10:48:58;;;;;;;24.15;6.13;;;21.60;82.60;;;;;;4861115;29;20490;-87
2021/08/14 10:51:46;;;;;;;20.98;6.03;;;21.60;83.10;;;;;;4862100;29;20093;-85
2021/08/14 10:54:29;;;;;;;19.30;6.28;;;21.60;82.20;;;;;;4861806;29;20472;-86
2021/08/14 10:57:13;;;;;;;19.40;5.95;;;21.60;82.90;;;;;;4861338;29;20049;-86
2021/08/14 10:59:38;;;;;;;19.13;5.95;;;21.70;83.20;;;;;;4862085;29;20186;-87
2021/08/14 11:02:07;;;;;;;20.45;5.97;;;21.70;83.90;;;;;;4862136;29;20132;-87
2021/08/14 11:04:44;;;;;;;19.13;5.43;;;21.80;83.80;;;;;;4862098;29;20049;-87
2021/08/14 11:07:18;;;;;;;21.88;6.13;;;21.90;83.30;;;;;;4861925;29;20059;-88
2021/08/14 11:09:46;;;;;;;20.08;5.68;;;22.00;82.80;;;;;;4860991;29;20053;-88
2021/08/14 11:12:25;;;;;;;25.02;6.35;;;22.10;82.90;;;;;;4860904;29;20166;-88
2021/08/14 11:14:53;;;;;;;24.42;6.22;;;22.20;82.40;;;;;;4861115;29;20137;-85
2021/08/14 11:17:35;;;;;;;23.17;6.28;;;22.30;82.20;;;;;;4860068;29;20137;-86
2021/08/14 11:20:01;;;;;;;18.35;5.18;;;22.40;81.20;;;;;;4860835;29;20046;-86
2021/08/14 11:22:42;;;;;;;20.60;5.80;;;22.50;80.10;;;;;;4861277;29;20060;-86
2021/08/14 11:25:29;;;;;;;17.70;5.28;;;22.40;79.10;;;;;;4860198;29;20133;-86
2021/08/14 11:27:59;;;;;;;19.80;6.22;;;22.50;78.70;;;;;;4862242;29;20056;-85
2021/08/14 11:30:28;;;;;;;15.75;5.72;;;22.50;78.70;;;;;;4865164;29;20085;-84
2021/08/14 11:32:55;;;;;;;22.58;6.10;;;22.40;79.60;;;;;;4864746;29;20060;-86
2021/08/14 11:35:23;;;;;;;17.88;5.78;;;22.50;79.60;;;;;;4865290;29;20538;-83
2021/08/14 11:37:49;;;;;;;18.42;5.97;;;22.40;79.70;;;;;;4864499;29;20076;-83
2021/08/14 11:40:15;;;;;;;17.77;5.80;;;22.50;79.80;;;;;;4865151;29;20049;-85
2021/08/14 11:42:41;;;;;;;19.65;5.65;;;22.50;80.20;;;;;;4865181;29;20057;-86
2021/08/14 11:45:07;;;;;;;18.63;5.80;;;22.60;79.70;;;;;;4864311;29;20574;-84
2021/08/14 11:47:36;;;;;;;16.88;5.53;;;22.60;79.80;;;;;;4865052;29;20061;-87
2021/08/14 11:50:08;;;;;;;18.10;5.88;;;22.70;79.20;;;;;;4864840;29;20080;-87
2021/08/14 11:52:34;;;;;;;13.97;5.20;;;22.70;79.10;;;;;;4865092;29;20053;-87
2021/08/14 11:55:03;;;;;;;18.77;5.85;;;22.80;78.70;;;;;;4865224;29;20053;-85
2021/08/14 11:57:30;;;;;;;18.48;5.65;;;22.80;78.10;;;;;;4865552;29;20054;-85
2021/08/14 11:59:57;;;;;;;18.17;5.65;;;22.90;78.10;;;;;;4864276;29;20057;-86
2021/08/14 12:02:25;;;;;;;18.67;5.88;;;22.90;77.80;;;;;;4865128;29;20069;-88
2021/08/14 12:04:54;;;;;;;18.08;5.60;;;22.90;77.40;;;;;;4865056;29;20129;-85
2021/08/14 12:07:22;;;;;;;19.63;5.65;;;22.90;78.70;;;;;;4864097;29;20109;-86
2021/08/14 12:09:48;;;;;;;17.20;5.32;;;22.90;78.30;;;;;;4865378;29;20124;-85
2021/08/14 12:12:21;;;;;;;17.65;5.80;;;23.00;78.70;;;;;;4864869;29;20077;-86
2021/08/14 12:14:47;;;;;;;;;;;23.00;77.80;;;;;;4864149;29;20057;-85
2021/08/14 12:17:13;;;;;;;17.70;5.82;;;22.90;77.40;;;;;;4864656;29;20558;-85
2021/08/14 12:19:51;;;;;;;17.63;4.90;;;23.00;78.00;;;;;;4864723;29;20550;-85
2021/08/14 12:22:16;;;;;;;14.45;4.68;;;23.00;77.30;;;;;;4864710;29;20057;-87
2021/08/14 12:24:44;;;;;;;14.10;4.57;;;23.00;77.10;;;;;;4864627;29;20133;-88
2021/08/14 12:27:26;;;;;;;15.90;4.72;;;23.00;76.40;;;;;;4863332;29;20418;-86
2021/08/14 12:29:53;;;;;;;13.07;4.57;;;23.00;77.20;;;;;;4864652;29;20080;-86
2021/08/14 12:32:18;;;;;;;15.55;4.70;;;23.00;77.40;;;;;;4864747;29;20060;-85
2021/08/14 12:34:44;;;;;;;13.73;4.50;;;23.00;76.60;;;;;;4863841;29;20463;-85
2021/08/14 12:37:12;;;;;;;14.48;4.53;;;23.00;77.00;;;;;;4864334;29;20053;-86
2021/08/14 12:39:57;;;;;;;13.65;4.03;;;23.00;76.40;;;;;;4864403;29;20056;-87